createdAt,value
2018-09-15T00:01:49.373Z,13.59
2018-09-15T00:04:19.557Z,13.53
2018-09-15T00:06:49.247Z,13.64
2018-09-15T00:09:19.917Z,13.49
2018-09-15T00:11:49.698Z,13.56
2018-09-15T00:14:19.521Z,13.57
2018-09-15T00:16:49.255Z,13.57
2018-09-15T00:19:18.985Z,13.55
2018-09-15T00:21:55.732Z,13.56
2018-09-15T00:24:26.180Z,13.54
2018-09-15T00:26:56.023Z,13.45
2018-09-15T00:29:25.845Z,13.51
2018-09-15T00:31:56.290Z,13.45
2018-09-15T00:34:26.053Z,13.36
2018-09-15T00:36:55.897Z,13.34
2018-09-15T00:39:25.638Z,13.31
2018-09-15T00:41:55.323Z,13.25
2018-09-15T00:44:29.714Z,13.22
2018-09-15T00:46:59.380Z,13.13
2018-09-15T00:49:29.911Z,13.09
2018-09-15T00:52:06.276Z,12.98
2018-09-15T00:54:36.091Z,12.89
2018-09-15T00:57:05.948Z,12.84
2018-09-15T00:59:35.759Z,12.88
2018-09-15T01:02:05.503Z,12.84
2018-09-15T01:04:35.853Z,12.83
2018-09-15T01:07:05.515Z,12.83
2018-09-15T01:09:35.231Z,12.82
2018-09-15T01:12:05.715Z,12.93
2018-09-15T01:14:35.477Z,12.86
2018-09-15T01:17:05.259Z,13.02
2018-09-15T01:19:35.040Z,13.05
2018-09-15T01:22:05.476Z,13.04
2018-09-15T01:24:35.495Z,13.09
2018-09-15T01:27:05.184Z,13.07
2018-09-15T01:29:34.997Z,13.15
2018-09-15T01:32:04.812Z,13.14
2018-09-15T01:34:34.702Z,13.18
2018-09-15T01:37:05.019Z,13.23
2018-09-15T01:39:34.793Z,13.33
2018-09-15T01:42:04.486Z,13.28
2018-09-15T01:44:34.251Z,13.20
2018-09-15T01:47:03.916Z,13.16
2018-09-15T01:49:33.716Z,13.17
2018-09-15T01:52:03.685Z,13.11
2018-09-15T01:54:40.189Z,13.21
2018-09-15T01:57:09.966Z,13.14
2018-09-15T01:59:39.921Z,13.14
2018-09-15T02:02:09.652Z,13.11
2018-09-15T02:04:39.309Z,12.87
2018-09-15T02:07:08.965Z,12.81
2018-09-15T02:09:39.416Z,12.85
2018-09-15T02:12:09.220Z,12.79
2018-09-15T02:14:39.147Z,12.79
2018-09-15T02:17:09.700Z,12.69
2018-09-15T02:19:39.432Z,12.64
2018-09-15T02:22:09.245Z,12.64
2018-09-15T02:24:38.956Z,12.74
2018-09-15T02:27:08.681Z,12.80
2018-09-15T02:29:38.365Z,12.75
2018-09-15T02:32:08.139Z,12.59
2018-09-15T02:34:37.784Z,12.49
2018-09-15T02:37:07.620Z,12.64
2018-09-15T02:39:37.450Z,12.71
2018-09-15T02:42:07.223Z,12.55
2018-09-15T02:44:36.992Z,12.55
2018-09-15T02:47:07.116Z,12.44
2018-09-15T02:49:36.800Z,12.35
2018-09-15T02:52:06.811Z,12.38
2018-09-15T02:54:37.041Z,12.43
2018-09-15T02:57:06.783Z,12.44
2018-09-15T02:59:36.675Z,12.46
2018-09-15T03:02:06.463Z,12.46
2018-09-15T03:04:36.148Z,12.45
2018-09-15T03:07:05.919Z,12.37
2018-09-15T03:09:35.930Z,12.21
2018-09-15T03:12:06.304Z,12.32
2018-09-15T03:14:35.969Z,12.27
2018-09-15T03:17:05.691Z,12.23
2018-09-15T03:19:35.462Z,12.24
2018-09-15T03:22:05.272Z,12.14
2018-09-15T03:24:34.903Z,12.19
2018-09-15T03:27:05.507Z,12.30
2018-09-15T03:29:35.770Z,12.23
2018-09-15T03:32:05.583Z,12.25
2018-09-15T03:34:35.229Z,12.33
2018-09-15T03:37:04.871Z,12.38
2018-09-15T03:39:34.709Z,12.36
2018-09-15T03:42:04.413Z,12.24
2018-09-15T03:44:34.180Z,12.36
2018-09-15T03:47:03.998Z,12.44
2018-09-15T03:49:33.671Z,12.25
2018-09-15T03:52:03.388Z,12.21
2018-09-15T03:54:33.125Z,12.24
2018-09-15T03:57:02.954Z,12.21
2018-09-15T03:59:32.686Z,12.23
2018-09-15T04:02:02.436Z,12.22
2018-09-15T04:04:32.217Z,11.99
2018-09-15T04:07:01.860Z,12.13
2018-09-15T04:09:31.551Z,12.02
2018-09-15T04:12:01.193Z,12.00
2018-09-15T04:14:30.853Z,11.87
2018-09-15T04:17:00.612Z,11.86
2018-09-15T04:19:30.304Z,11.84
2018-09-15T04:22:00.086Z,11.87
2018-09-15T04:24:29.799Z,11.85
2018-09-15T04:26:59.411Z,11.80
2018-09-15T04:29:29.124Z,11.75
2018-09-15T04:31:58.804Z,11.73
2018-09-15T04:34:28.460Z,11.73
2018-09-15T04:36:58.137Z,11.70
2018-09-15T04:39:27.825Z,11.67
2018-09-15T04:41:57.591Z,11.73
2018-09-15T04:44:27.255Z,11.68
2018-09-15T04:46:57.100Z,11.74
2018-09-15T04:49:27.433Z,11.67
2018-09-15T04:51:57.279Z,11.71
2018-09-15T04:54:26.923Z,11.82
2018-09-15T04:56:56.648Z,11.86
2018-09-15T04:59:26.352Z,11.87
2018-09-15T05:01:56.046Z,12.01
2018-09-15T05:04:25.676Z,12.06
2018-09-15T05:06:55.624Z,12.08
2018-09-15T05:09:25.326Z,12.11
2018-09-15T05:11:55.012Z,12.18
2018-09-15T05:14:24.719Z,12.24
2018-09-15T05:16:54.541Z,12.21
2018-09-15T05:19:25.143Z,12.29
2018-09-15T05:21:54.788Z,12.22
2018-09-15T05:24:24.436Z,12.24
2018-09-15T05:26:54.211Z,12.28
2018-09-15T05:29:23.966Z,12.44
2018-09-15T05:31:53.715Z,12.50
2018-09-15T05:34:23.423Z,12.43
2018-09-15T05:36:53.601Z,12.35
2018-09-15T05:39:23.406Z,12.44
2018-09-15T05:41:53.176Z,12.30
2018-09-15T05:44:23.121Z,12.35
2018-09-15T05:46:52.988Z,12.48
2018-09-15T05:49:22.625Z,12.40
2018-09-15T05:51:52.615Z,12.52
2018-09-15T05:54:22.312Z,12.42
2018-09-15T05:56:52.112Z,12.57
2018-09-15T05:59:21.976Z,12.46
2018-09-15T06:01:51.876Z,12.49
2018-09-15T06:04:21.443Z,12.41
2018-09-15T06:06:51.227Z,12.39
2018-09-15T06:09:20.921Z,12.60
2018-09-15T06:11:50.834Z,12.78
2018-09-15T06:14:20.541Z,14.01
2018-09-15T06:16:50.206Z,17.43
2018-09-15T06:19:19.909Z,13.94
2018-09-15T06:21:49.566Z,17.84
2018-09-15T06:24:19.256Z,14.60
2018-09-15T06:26:48.992Z,16.82
2018-09-15T06:29:18.692Z,16.01
2018-09-15T06:31:48.693Z,18.02
2018-09-15T06:34:18.398Z,16.11
2018-09-15T06:36:48.379Z,14.61
2018-09-15T06:39:18.330Z,14.69
2018-09-15T06:41:48.208Z,14.59
2018-09-15T06:44:18.006Z,13.82
2018-09-15T06:46:47.960Z,14.09
2018-09-15T06:49:17.729Z,13.93
2018-09-15T06:51:47.524Z,13.90
2018-09-15T06:54:17.180Z,14.13
2018-09-15T06:56:46.893Z,13.71
2018-09-15T06:59:17.144Z,13.93
2018-09-15T07:01:46.910Z,14.19
2018-09-15T07:04:16.619Z,14.05
2018-09-15T07:06:53.167Z,14.20
2018-09-15T07:09:22.930Z,13.99
2018-09-15T07:11:52.587Z,14.06
2018-09-15T07:14:22.332Z,14.33
2018-09-15T07:16:52.061Z,14.55
2018-09-15T07:19:21.758Z,14.76
2018-09-15T07:21:56.147Z,14.43
2018-09-15T07:24:26.957Z,14.91
2018-09-15T07:26:57.060Z,14.76
2018-09-15T07:29:26.823Z,15.30
2018-09-15T07:31:56.808Z,14.84
2018-09-15T07:34:26.585Z,15.03
2018-09-15T07:36:57.087Z,15.20
2018-09-15T07:39:26.916Z,14.97
2018-09-15T07:41:56.584Z,15.41
2018-09-15T07:44:26.334Z,15.56
2018-09-15T07:46:55.968Z,15.55
2018-09-15T07:49:25.757Z,15.60
2018-09-15T07:51:55.449Z,15.27
2018-09-15T07:54:25.141Z,15.31
2018-09-15T07:56:54.895Z,15.79
2018-09-15T07:59:24.686Z,15.60
2018-09-15T08:01:54.495Z,15.53
2018-09-15T08:04:24.177Z,15.86
2018-09-15T08:06:53.941Z,15.49
2018-09-15T08:09:23.688Z,16.12
2018-09-15T08:11:53.469Z,15.89
2018-09-15T08:14:23.248Z,15.90
2018-09-15T08:16:53.022Z,15.91
2018-09-15T08:19:22.654Z,15.68
2018-09-15T08:21:52.675Z,16.44
2018-09-15T08:24:22.969Z,16.09
2018-09-15T08:26:52.725Z,15.99
2018-09-15T08:29:22.432Z,16.18
2018-09-15T08:31:52.171Z,16.13
2018-09-15T08:34:21.954Z,16.52
2018-09-15T08:36:51.726Z,16.76
2018-09-15T08:39:21.495Z,17.08
2018-09-15T08:41:51.524Z,17.29
2018-09-15T08:44:21.772Z,17.23
2018-09-15T08:46:52.137Z,17.19
2018-09-15T08:49:22.084Z,17.36
2018-09-15T08:51:52.641Z,16.89
2018-09-15T08:54:23.901Z,17.36
2018-09-15T08:56:54.154Z,17.40
2018-09-15T08:59:23.989Z,17.38
2018-09-15T09:01:53.787Z,17.93
2018-09-15T09:04:28.361Z,17.57
2018-09-15T09:06:58.564Z,17.31
2018-09-15T09:09:28.909Z,17.80
2018-09-15T09:11:58.913Z,17.89
2018-09-15T09:14:28.791Z,17.70
2018-09-15T09:16:58.705Z,17.80
2018-09-15T09:19:29.204Z,18.03
2018-09-15T09:21:58.950Z,18.58
2018-09-15T09:24:28.693Z,18.43
2018-09-15T09:26:58.444Z,18.13
2018-09-15T09:29:28.310Z,18.50
2018-09-15T09:31:58.882Z,18.99
2018-09-15T09:34:29.140Z,18.99
2018-09-15T09:36:59.135Z,19.03
2018-09-15T09:39:28.964Z,18.44
2018-09-15T09:41:59.132Z,18.31
2018-09-15T09:44:29.146Z,18.28
2018-09-15T09:46:59.264Z,18.34
2018-09-15T09:49:29.139Z,18.83
2018-09-15T09:51:59.132Z,19.10
2018-09-15T09:54:28.864Z,19.44
2018-09-15T09:56:59.349Z,18.95
2018-09-15T09:59:29.130Z,19.58
2018-09-15T10:02:03.983Z,19.10
2018-09-15T10:04:33.791Z,19.35
2018-09-15T10:07:03.785Z,19.39
2018-09-15T10:09:33.667Z,18.39
2018-09-15T10:12:03.670Z,18.61
2018-09-15T10:14:34.362Z,18.55
2018-09-15T10:17:04.741Z,18.05
2018-09-15T10:19:34.477Z,18.16
2018-09-15T10:22:04.339Z,18.45
2018-09-15T10:24:34.229Z,18.44
2018-09-15T10:27:08.278Z,18.64
2018-09-15T10:29:38.071Z,18.58
2018-09-15T10:32:07.899Z,18.64
2018-09-15T10:34:37.607Z,18.37
2018-09-15T10:37:08.373Z,18.44
2018-09-15T10:39:38.102Z,18.73
2018-09-15T10:42:07.836Z,18.57
2018-09-15T10:44:37.615Z,18.63
2018-09-15T10:47:07.363Z,18.26
2018-09-15T10:49:37.259Z,18.06
2018-09-15T10:52:07.028Z,17.85
2018-09-15T10:54:36.804Z,18.00
2018-09-15T10:57:06.903Z,17.94
2018-09-15T10:59:36.702Z,18.08
2018-09-15T11:02:06.654Z,17.98
2018-09-15T11:04:36.423Z,18.24
2018-09-15T11:07:06.277Z,17.92
2018-09-15T11:09:36.017Z,18.08
2018-09-15T11:12:05.903Z,18.18
2018-09-15T11:14:35.701Z,18.24
2018-09-15T11:17:06.144Z,18.48
2018-09-15T11:19:36.212Z,18.05
2018-09-15T11:22:06.315Z,18.38
2018-09-15T11:24:37.167Z,18.22
2018-09-15T11:27:07.733Z,17.98
2018-09-15T11:29:37.547Z,18.28
2018-09-15T11:32:07.317Z,18.58
2018-09-15T11:34:37.145Z,18.83
2018-09-15T11:37:06.994Z,18.79
2018-09-15T11:39:40.960Z,18.66
2018-09-15T11:42:10.746Z,19.10
2018-09-15T11:44:40.532Z,19.19
2018-09-15T11:47:10.295Z,19.58
2018-09-15T11:49:40.277Z,19.60
2018-09-15T11:52:10.116Z,19.43
2018-09-15T11:54:39.921Z,19.73
2018-09-15T11:57:09.668Z,19.17
2018-09-15T11:59:39.423Z,19.26
2018-09-15T12:02:09.332Z,19.05
2018-09-15T12:04:39.180Z,18.91
2018-09-15T12:07:08.958Z,18.78
2018-09-15T12:09:38.736Z,18.80
2018-09-15T12:12:08.474Z,18.94
2018-09-15T12:14:38.220Z,19.16
2018-09-15T12:17:08.085Z,18.81
2018-09-15T12:19:38.894Z,19.02
2018-09-15T12:22:09.355Z,18.80
2018-09-15T12:24:39.539Z,19.27
2018-09-15T12:27:09.292Z,19.35
2018-09-15T12:29:38.931Z,19.45
2018-09-15T12:32:08.686Z,19.81
2018-09-15T12:34:43.204Z,19.18
2018-09-15T12:37:12.932Z,19.76
2018-09-15T12:39:42.578Z,19.07
2018-09-15T12:42:12.405Z,18.90
2018-09-15T12:44:42.215Z,19.05
2018-09-15T12:47:11.895Z,18.84
2018-09-15T12:49:41.536Z,19.10
2018-09-15T12:52:11.223Z,18.72
2018-09-15T12:54:40.947Z,19.09
2018-09-15T12:57:10.666Z,18.78
2018-09-15T12:59:40.575Z,19.09
2018-09-15T13:02:11.080Z,19.37
2018-09-15T13:04:40.824Z,19.30
2018-09-15T13:07:10.572Z,19.57
2018-09-15T13:09:40.334Z,19.11
2018-09-15T13:12:10.130Z,19.32
2018-09-15T13:14:39.717Z,19.07
2018-09-15T13:17:09.456Z,18.83
2018-09-15T13:19:39.104Z,19.03
2018-09-15T13:22:08.764Z,18.67
2018-09-15T13:24:38.633Z,18.85
2018-09-15T13:27:08.351Z,18.74
2018-09-15T13:29:38.286Z,18.74
2018-09-15T13:32:09.001Z,18.74
2018-09-15T13:34:38.806Z,18.51
2018-09-15T13:37:08.653Z,18.50
2018-09-15T13:39:38.457Z,18.73
2018-09-15T13:42:08.525Z,19.01
2018-09-15T13:44:38.356Z,19.10
2018-09-15T13:47:08.150Z,18.99
2018-09-15T13:49:38.073Z,19.10
2018-09-15T13:52:07.886Z,19.08
2018-09-15T13:54:37.711Z,19.23
2018-09-15T13:57:07.556Z,19.04
2018-09-15T13:59:37.925Z,18.97
2018-09-15T14:02:07.973Z,18.67
2018-09-15T14:04:37.662Z,18.63
2018-09-15T14:07:07.576Z,18.79
2018-09-15T14:09:43.474Z,18.70
2018-09-15T14:12:07.539Z,18.55
2018-09-15T14:14:37.325Z,18.59
2018-09-15T14:17:07.102Z,18.57
2018-09-15T14:19:36.905Z,18.79
2018-09-15T14:22:06.556Z,19.08
2018-09-15T14:24:36.260Z,18.74
2018-09-15T14:27:06.079Z,18.71
2018-09-15T14:29:35.915Z,18.63
2018-09-15T14:32:05.613Z,18.68
2018-09-15T14:34:35.505Z,18.95
2018-09-15T14:37:05.226Z,18.66
2018-09-15T14:39:34.981Z,19.09
2018-09-15T14:42:04.610Z,18.91
2018-09-15T14:44:34.350Z,18.76
2018-09-15T14:47:04.121Z,18.92
2018-09-15T14:49:33.952Z,18.96
2018-09-15T14:52:03.679Z,18.97
2018-09-15T14:54:33.383Z,18.49
2018-09-15T14:57:03.079Z,18.52
2018-09-15T14:59:33.054Z,18.44
2018-09-15T15:02:02.742Z,18.30
2018-09-15T15:04:32.523Z,18.38
2018-09-15T15:07:02.181Z,18.51
2018-09-15T15:09:32.093Z,18.57
2018-09-15T15:12:01.777Z,18.75
2018-09-15T15:14:31.454Z,18.96
2018-09-15T15:17:01.172Z,18.59
2018-09-15T15:19:30.876Z,19.19
2018-09-15T15:22:00.536Z,18.83
2018-09-15T15:24:30.292Z,19.15
2018-09-15T15:27:00.054Z,19.12
2018-09-15T15:29:29.839Z,19.46
2018-09-15T15:31:59.580Z,19.44
2018-09-15T15:34:29.544Z,19.37
2018-09-15T15:36:59.240Z,19.37
2018-09-15T15:39:28.993Z,19.19
2018-09-15T15:41:58.785Z,19.43
2018-09-15T15:44:28.553Z,19.42
2018-09-15T15:46:58.237Z,19.40
2018-09-15T15:49:27.996Z,19.36
2018-09-15T15:51:57.686Z,19.54
2018-09-15T15:54:27.388Z,19.24
2018-09-15T15:56:57.193Z,19.11
2018-09-15T15:59:26.871Z,18.92
2018-09-15T16:01:56.689Z,18.81
2018-09-15T16:04:26.465Z,18.71
2018-09-15T16:06:56.143Z,18.55
2018-09-15T16:09:25.855Z,18.44
2018-09-15T16:11:55.588Z,18.39
2018-09-15T16:14:25.499Z,18.28
2018-09-15T16:16:55.374Z,18.38
2018-09-15T16:19:26.132Z,18.26
2018-09-15T16:21:55.870Z,18.33
2018-09-15T16:24:25.603Z,18.27
2018-09-15T16:26:55.249Z,18.30
2018-09-15T16:29:24.967Z,18.13
2018-09-15T16:31:54.741Z,18.29
2018-09-15T16:34:24.619Z,18.34
2018-09-15T16:36:54.289Z,18.14
2018-09-15T16:39:23.991Z,18.12
2018-09-15T16:41:53.732Z,18.09
2018-09-15T16:44:23.477Z,18.07
2018-09-15T16:46:53.822Z,18.00
2018-09-15T16:49:24.095Z,18.06
2018-09-15T16:51:53.824Z,18.02
2018-09-15T16:54:23.494Z,17.94
2018-09-15T16:56:53.223Z,17.95
2018-09-15T16:59:22.940Z,17.94
2018-09-15T17:01:52.603Z,17.88
2018-09-15T17:04:22.339Z,17.88
2018-09-15T17:06:52.367Z,17.84
2018-09-15T17:09:22.134Z,17.80
2018-09-15T17:11:51.865Z,17.75
2018-09-15T17:14:21.610Z,17.73
2018-09-15T17:16:51.373Z,17.64
2018-09-15T17:19:21.093Z,17.60
2018-09-15T17:21:50.814Z,17.66
2018-09-15T17:24:20.535Z,17.63
2018-09-15T17:26:50.249Z,17.60
2018-09-15T17:29:20.049Z,17.49
2018-09-15T17:31:49.769Z,17.42
2018-09-15T17:34:19.482Z,17.40
2018-09-15T17:36:49.251Z,17.42
2018-09-15T17:39:18.912Z,17.40
2018-09-15T17:41:48.829Z,17.39
2018-09-15T17:44:18.602Z,17.40
2018-09-15T17:46:48.748Z,17.34
2018-09-15T17:49:18.451Z,17.37
2018-09-15T17:51:48.548Z,17.33
2018-09-15T17:54:18.293Z,17.40
2018-09-15T17:56:48.414Z,17.40
2018-09-15T17:59:18.156Z,17.21
2018-09-15T18:01:48.128Z,17.22
2018-09-15T18:04:17.849Z,17.13
2018-09-15T18:06:47.780Z,17.09
2018-09-15T18:09:17.569Z,17.18
2018-09-15T18:11:47.780Z,17.11
2018-09-15T18:14:17.515Z,17.02
2018-09-15T18:16:47.301Z,17.06
2018-09-15T18:19:17.107Z,16.98
2018-09-15T18:21:46.830Z,17.04
2018-09-15T18:24:16.557Z,17.08
2018-09-15T18:26:46.392Z,17.00
2018-09-15T18:29:16.139Z,16.97
2018-09-15T18:31:45.937Z,17.00
2018-09-15T18:34:15.708Z,16.80
2018-09-15T18:36:45.558Z,16.70
2018-09-15T18:39:15.120Z,16.66
2018-09-15T18:41:45.022Z,16.67
2018-09-15T18:44:15.797Z,16.49
2018-09-15T18:46:45.481Z,16.36
2018-09-15T18:49:15.271Z,16.32
2018-09-15T18:51:44.979Z,16.29
2018-09-15T18:54:14.860Z,16.23
2018-09-15T18:56:44.628Z,16.21
2018-09-15T18:59:14.656Z,16.15
2018-09-15T19:01:44.368Z,16.05
2018-09-15T19:04:14.135Z,15.96
2018-09-15T19:06:43.904Z,15.96
2018-09-15T19:09:13.697Z,15.85
2018-09-15T19:11:43.436Z,15.83
2018-09-15T19:14:13.150Z,15.77
2018-09-15T19:16:42.908Z,15.72
2018-09-15T19:19:12.695Z,15.68
2018-09-15T19:21:42.434Z,15.65
2018-09-15T19:24:12.276Z,15.66
2018-09-15T19:26:42.141Z,15.55
2018-09-15T19:29:11.781Z,15.43
2018-09-15T19:31:41.597Z,15.37
2018-09-15T19:34:14.262Z,15.40
2018-09-15T19:36:44.357Z,15.43
2018-09-15T19:39:15.280Z,15.31
2018-09-15T19:41:44.909Z,15.34
2018-09-15T19:44:14.612Z,15.37
2018-09-15T19:46:44.379Z,15.38
2018-09-15T19:49:14.233Z,15.46
2018-09-15T19:51:43.995Z,15.61
2018-09-15T19:54:13.753Z,15.64
2018-09-15T19:56:47.883Z,15.47
2018-09-15T19:59:17.690Z,15.58
2018-09-15T20:01:47.421Z,15.58
2018-09-15T20:04:17.158Z,15.67
2018-09-15T20:06:46.949Z,15.71
2018-09-15T20:09:16.673Z,15.75
2018-09-15T20:11:46.446Z,15.74
2018-09-15T20:14:16.240Z,15.75
2018-09-15T20:16:44.108Z,15.73
2018-09-15T20:19:12.030Z,15.78
2018-09-15T20:21:39.897Z,15.81
2018-09-15T20:24:09.639Z,15.86
2018-09-15T20:26:39.385Z,15.89
2018-09-15T20:29:09.028Z,15.92
2018-09-15T20:31:38.855Z,16.03
2018-09-15T20:34:08.604Z,16.03
2018-09-15T20:36:38.366Z,16.06
2018-09-15T20:39:11.471Z,16.07
2018-09-15T20:41:41.541Z,16.11
2018-09-15T20:44:11.266Z,16.11
2018-09-15T20:46:40.911Z,16.06
2018-09-15T20:49:11.550Z,16.01
2018-09-15T20:51:41.228Z,15.93
2018-09-15T20:54:11.805Z,15.93
2018-09-15T20:56:41.483Z,15.85
2018-09-15T20:59:11.167Z,15.78
2018-09-15T21:01:40.826Z,15.76
2018-09-15T21:04:10.496Z,15.82
2018-09-15T21:06:40.233Z,15.72
2018-09-15T21:09:11.814Z,15.68
2018-09-15T21:11:41.468Z,15.64
2018-09-15T21:14:11.252Z,15.58
2018-09-15T21:16:40.961Z,15.52
2018-09-15T21:19:10.656Z,15.49
2018-09-15T21:21:40.325Z,15.38
2018-09-15T21:24:10.214Z,15.31
2018-09-15T21:26:39.839Z,15.22
2018-09-15T21:29:09.791Z,15.16
2018-09-15T21:31:39.911Z,15.12
2018-09-15T21:34:09.608Z,15.03
2018-09-15T21:36:39.307Z,15.04
2018-09-15T21:39:13.282Z,14.92
2018-09-15T21:41:43.083Z,14.89
2018-09-15T21:44:12.833Z,14.84
2018-09-15T21:46:42.724Z,14.77
2018-09-15T21:49:12.416Z,14.72
2018-09-15T21:51:42.168Z,14.65
2018-09-15T21:54:11.920Z,14.59
2018-09-15T21:56:41.659Z,14.56
2018-09-15T21:59:11.367Z,14.57
2018-09-15T22:01:41.038Z,14.55
2018-09-15T22:04:16.095Z,14.44
2018-09-15T22:06:45.743Z,14.42
2018-09-15T22:09:15.462Z,14.40
2018-09-15T22:11:45.186Z,14.35
2018-09-15T22:14:14.931Z,14.32
2018-09-15T22:16:45.174Z,14.16
2018-09-15T22:19:14.836Z,14.11
2018-09-15T22:21:44.616Z,14.12
2018-09-15T22:24:14.311Z,14.07
2018-09-15T22:26:44.090Z,14.12
2018-09-15T22:29:14.984Z,14.12
2018-09-15T22:31:44.759Z,14.07
2018-09-15T22:34:14.592Z,14.09
2018-09-15T22:36:44.189Z,14.01
2018-09-15T22:39:13.863Z,14.07
2018-09-15T22:41:43.608Z,14.02
2018-09-15T22:44:13.481Z,14.02
2018-09-15T22:46:43.226Z,13.92
2018-09-15T22:49:13.240Z,13.78
2018-09-15T22:51:42.983Z,13.70
2018-09-15T22:54:13.275Z,13.79
2018-09-15T22:56:42.873Z,13.79
2018-09-15T22:59:12.915Z,13.80
2018-09-15T23:01:42.687Z,13.79
2018-09-15T23:04:14.020Z,13.64
2018-09-15T23:06:43.765Z,13.56
2018-09-15T23:09:13.449Z,13.59
2018-09-15T23:11:43.136Z,13.58
2018-09-15T23:14:12.875Z,13.63
2018-09-15T23:16:42.556Z,13.59
2018-09-15T23:19:12.245Z,13.51
2018-09-15T23:21:41.892Z,13.44
2018-09-15T23:24:11.764Z,13.48
2018-09-15T23:26:42.215Z,13.43
2018-09-15T23:29:12.253Z,13.42
2018-09-15T23:31:41.978Z,13.38
2018-09-15T23:34:11.729Z,13.33
2018-09-15T23:36:41.368Z,13.27
2018-09-15T23:39:11.063Z,13.15
2018-09-15T23:41:40.838Z,13.07
2018-09-15T23:44:10.567Z,13.04
2018-09-15T23:46:40.314Z,13.03
2018-09-15T23:49:09.944Z,13.04
2018-09-15T23:51:39.687Z,13.03
2018-09-15T23:54:09.558Z,12.96
2018-09-15T23:56:39.277Z,12.97
2018-09-15T23:59:09.077Z,12.91
